sensor_id;sensor_type;location;lat;lon;timestamp;P1;durP1;ratioP1;P2;durP2;ratioP2
42682;SDS011;28293;50.930;3.464;2023-05-27T00:00:13;26.83;;;7.30;;
42682;SDS011;28293;50.930;3.464;2023-05-27T00:02:39;22.45;;;7.60;;
42682;SDS011;28293;50.930;3.464;2023-05-27T00:05:05;20.73;;;7.35;;
42682;SDS011;28293;50.930;3.464;2023-05-27T00:07:31;24.90;;;8.13;;
42682;SDS011;28293;50.930;3.464;2023-05-27T00:09:57;21.80;;;7.10;;
42682;SDS011;28293;50.930;3.464;2023-05-27T00:12:24;27.73;;;6.97;;
42682;SDS011;28293;50.930;3.464;2023-05-27T00:14:49;24.90;;;6.75;;
42682;SDS011;28293;50.930;3.464;2023-05-27T00:17:15;26.73;;;8.02;;
42682;SDS011;28293;50.930;3.464;2023-05-27T00:19:43;24.60;;;6.97;;
42682;SDS011;28293;50.930;3.464;2023-05-27T00:22:10;18.33;;;6.93;;
42682;SDS011;28293;50.930;3.464;2023-05-27T00:24:36;19.05;;;7.32;;
42682;SDS011;28293;50.930;3.464;2023-05-27T00:27:07;25.35;;;7.22;;
42682;SDS011;28293;50.930;3.464;2023-05-27T00:29:34;22.48;;;6.70;;
42682;SDS011;28293;50.930;3.464;2023-05-27T00:34:52;20.00;;;6.15;;
42682;SDS011;28293;50.930;3.464;2023-05-27T00:37:18;24.88;;;7.47;;
42682;SDS011;28293;50.930;3.464;2023-05-27T00:39:43;22.60;;;8.27;;
42682;SDS011;28293;50.930;3.464;2023-05-27T00:42:10;18.20;;;7.03;;
42682;SDS011;28293;50.930;3.464;2023-05-27T00:44:36;25.75;;;7.57;;
42682;SDS011;28293;50.930;3.464;2023-05-27T00:47:02;24.50;;;6.95;;
42682;SDS011;28293;50.930;3.464;2023-05-27T00:49:28;21.85;;;6.75;;
42682;SDS011;28293;50.930;3.464;2023-05-27T00:51:53;22.25;;;7.50;;
42682;SDS011;28293;50.930;3.464;2023-05-27T00:54:19;21.73;;;6.90;;
42682;SDS011;28293;50.930;3.464;2023-05-27T00:56:45;21.30;;;6.80;;
42682;SDS011;28293;50.930;3.464;2023-05-27T00:59:12;21.48;;;6.85;;
42682;SDS011;28293;50.930;3.464;2023-05-27T01:01:38;20.00;;;7.20;;
42682;SDS011;28293;50.930;3.464;2023-05-27T01:04:08;19.33;;;7.35;;
42682;SDS011;28293;50.930;3.464;2023-05-27T01:14:33;20.38;;;7.57;;
42682;SDS011;28293;50.930;3.464;2023-05-27T01:17:01;18.65;;;7.82;;
42682;SDS011;28293;50.930;3.464;2023-05-27T01:19:30;22.60;;;7.90;;
42682;SDS011;28293;50.930;3.464;2023-05-27T01:22:00;16.40;;;7.43;;
42682;SDS011;28293;50.930;3.464;2023-05-27T01:24:27;21.10;;;6.90;;
42682;SDS011;28293;50.930;3.464;2023-05-27T01:26:53;20.67;;;6.82;;
42682;SDS011;28293;50.930;3.464;2023-05-27T01:29:25;21.92;;;8.13;;
42682;SDS011;28293;50.930;3.464;2023-05-27T01:34:28;26.42;;;7.50;;
42682;SDS011;28293;50.930;3.464;2023-05-27T01:37:02;20.23;;;7.07;;
42682;SDS011;28293;50.930;3.464;2023-05-27T01:39:32;27.45;;;8.27;;
42682;SDS011;28293;50.930;3.464;2023-05-27T01:41:59;22.85;;;7.88;;
42682;SDS011;28293;50.930;3.464;2023-05-27T01:44:27;17.73;;;7.78;;
42682;SDS011;28293;50.930;3.464;2023-05-27T01:47:01;26.85;;;7.75;;
42682;SDS011;28293;50.930;3.464;2023-05-27T01:49:29;24.73;;;7.78;;
42682;SDS011;28293;50.930;3.464;2023-05-27T01:51:55;23.90;;;7.65;;
42682;SDS011;28293;50.930;3.464;2023-05-27T01:54:21;24.00;;;7.60;;
42682;SDS011;28293;50.930;3.464;2023-05-27T01:56:47;20.92;;;7.13;;
42682;SDS011;28293;50.930;3.464;2023-05-27T01:59:13;20.63;;;6.65;;
42682;SDS011;28293;50.930;3.464;2023-05-27T02:01:39;19.73;;;6.88;;
42682;SDS011;28293;50.930;3.464;2023-05-27T02:04:07;19.15;;;7.13;;
42682;SDS011;28293;50.930;3.464;2023-05-27T02:06:33;23.50;;;7.70;;
42682;SDS011;28293;50.930;3.464;2023-05-27T02:08:59;17.73;;;7.13;;
42682;SDS011;28293;50.930;3.464;2023-05-27T02:11:25;24.85;;;8.10;;
42682;SDS011;28293;50.930;3.464;2023-05-27T02:13:51;23.55;;;8.10;;
42682;SDS011;28293;50.930;3.464;2023-05-27T02:16:17;21.33;;;7.68;;
42682;SDS011;28293;50.930;3.464;2023-05-27T02:18:47;18.75;;;7.28;;
42682;SDS011;28293;50.930;3.464;2023-05-27T02:21:14;23.45;;;7.60;;
42682;SDS011;28293;50.930;3.464;2023-05-27T02:23:39;20.67;;;8.25;;
42682;SDS011;28293;50.930;3.464;2023-05-27T02:26:06;20.52;;;7.38;;
42682;SDS011;28293;50.930;3.464;2023-05-27T02:28:31;22.10;;;7.78;;
42682;SDS011;28293;50.930;3.464;2023-05-27T02:30:57;23.27;;;7.45;;
42682;SDS011;28293;50.930;3.464;2023-05-27T02:33:24;21.35;;;7.80;;
42682;SDS011;28293;50.930;3.464;2023-05-27T02:35:50;22.15;;;7.80;;
42682;SDS011;28293;50.930;3.464;2023-05-27T02:38:15;21.13;;;7.78;;
42682;SDS011;28293;50.930;3.464;2023-05-27T02:40:41;21.27;;;7.80;;
42682;SDS011;28293;50.930;3.464;2023-05-27T02:43:07;22.08;;;8.07;;
42682;SDS011;28293;50.930;3.464;2023-05-27T02:45:33;18.13;;;7.28;;
42682;SDS011;28293;50.930;3.464;2023-05-27T02:47:59;21.35;;;7.53;;
42682;SDS011;28293;50.930;3.464;2023-05-27T02:50:26;23.60;;;8.07;;
42682;SDS011;28293;50.930;3.464;2023-05-27T02:52:52;25.77;;;8.05;;
42682;SDS011;28293;50.930;3.464;2023-05-27T02:55:18;27.25;;;8.07;;
42682;SDS011;28293;50.930;3.464;2023-05-27T02:57:43;21.92;;;8.38;;
42682;SDS011;28293;50.930;3.464;2023-05-27T03:00:09;23.40;;;8.60;;
42682;SDS011;28293;50.930;3.464;2023-05-27T03:02:36;24.15;;;9.65;;
42682;SDS011;28293;50.930;3.464;2023-05-27T03:05:02;23.48;;;7.80;;
42682;SDS011;28293;50.930;3.464;2023-05-27T03:07:29;26.20;;;7.72;;
42682;SDS011;28293;50.930;3.464;2023-05-27T03:09:55;23.45;;;8.73;;
42682;SDS011;28293;50.930;3.464;2023-05-27T03:12:21;19.75;;;8.48;;
42682;SDS011;28293;50.930;3.464;2023-05-27T03:14:47;20.02;;;8.15;;
42682;SDS011;28293;50.930;3.464;2023-05-27T03:17:14;24.92;;;9.25;;
42682;SDS011;28293;50.930;3.464;2023-05-27T03:19:40;22.35;;;8.32;;
42682;SDS011;28293;50.930;3.464;2023-05-27T03:22:06;24.27;;;8.93;;
42682;SDS011;28293;50.930;3.464;2023-05-27T03:24:33;24.52;;;8.15;;
42682;SDS011;28293;50.930;3.464;2023-05-27T03:26:58;18.60;;;8.30;;
42682;SDS011;28293;50.930;3.464;2023-05-27T03:29:24;24.23;;;7.82;;
42682;SDS011;28293;50.930;3.464;2023-05-27T03:31:50;18.85;;;7.90;;
42682;SDS011;28293;50.930;3.464;2023-05-27T03:34:16;24.15;;;9.15;;
42682;SDS011;28293;50.930;3.464;2023-05-27T03:36:41;20.90;;;7.75;;
42682;SDS011;28293;50.930;3.464;2023-05-27T03:39:11;23.65;;;8.52;;
42682;SDS011;28293;50.930;3.464;2023-05-27T03:41:37;27.35;;;7.93;;
42682;SDS011;28293;50.930;3.464;2023-05-27T03:44:03;19.42;;;8.65;;
42682;SDS011;28293;50.930;3.464;2023-05-27T03:46:28;26.20;;;9.18;;
42682;SDS011;28293;50.930;3.464;2023-05-27T03:48:54;24.50;;;8.48;;
42682;SDS011;28293;50.930;3.464;2023-05-27T03:51:20;24.85;;;8.82;;
42682;SDS011;28293;50.930;3.464;2023-05-27T03:53:46;23.30;;;8.68;;
42682;SDS011;28293;50.930;3.464;2023-05-27T03:56:12;20.65;;;8.52;;
42682;SDS011;28293;50.930;3.464;2023-05-27T03:58:38;21.75;;;7.70;;
42682;SDS011;28293;50.930;3.464;2023-05-27T04:01:04;24.23;;;8.20;;
42682;SDS011;28293;50.930;3.464;2023-05-27T04:03:30;23.40;;;9.73;;
42682;SDS011;28293;50.930;3.464;2023-05-27T04:05:57;20.35;;;8.43;;
42682;SDS011;28293;50.930;3.464;2023-05-27T04:08:23;23.60;;;8.35;;
42682;SDS011;28293;50.930;3.464;2023-05-27T04:10:51;18.25;;;7.68;;
42682;SDS011;28293;50.930;3.464;2023-05-27T04:13:17;23.45;;;8.55;;
42682;SDS011;28293;50.930;3.464;2023-05-27T04:15:43;23.13;;;9.63;;
42682;SDS011;28293;50.930;3.464;2023-05-27T04:18:09;22.80;;;8.60;;
42682;SDS011;28293;50.930;3.464;2023-05-27T04:20:38;22.95;;;8.73;;
42682;SDS011;28293;50.930;3.464;2023-05-27T04:23:06;21.38;;;8.90;;
42682;SDS011;28293;50.930;3.464;2023-05-27T04:25:32;23.55;;;8.65;;
42682;SDS011;28293;50.930;3.464;2023-05-27T04:27:59;21.65;;;8.63;;
42682;SDS011;28293;50.930;3.464;2023-05-27T04:30:25;23.55;;;8.68;;
42682;SDS011;28293;50.930;3.464;2023-05-27T04:32:51;26.35;;;9.00;;
42682;SDS011;28293;50.930;3.464;2023-05-27T04:35:17;18.70;;;7.72;;
42682;SDS011;28293;50.930;3.464;2023-05-27T04:37:43;24.90;;;8.63;;
42682;SDS011;28293;50.930;3.464;2023-05-27T04:40:09;25.38;;;7.40;;
42682;SDS011;28293;50.930;3.464;2023-05-27T04:42:36;25.35;;;8.50;;
42682;SDS011;28293;50.930;3.464;2023-05-27T04:45:02;22.00;;;8.30;;
42682;SDS011;28293;50.930;3.464;2023-05-27T04:47:29;21.92;;;8.15;;
42682;SDS011;28293;50.930;3.464;2023-05-27T04:49:55;27.13;;;9.13;;
42682;SDS011;28293;50.930;3.464;2023-05-27T04:52:21;24.38;;;8.77;;
42682;SDS011;28293;50.930;3.464;2023-05-27T04:54:48;23.45;;;9.38;;
42682;SDS011;28293;50.930;3.464;2023-05-27T04:57:15;23.63;;;8.73;;
42682;SDS011;28293;50.930;3.464;2023-05-27T04:59:44;25.27;;;8.88;;
42682;SDS011;28293;50.930;3.464;2023-05-27T05:02:28;21.33;;;7.80;;
42682;SDS011;28293;50.930;3.464;2023-05-27T05:05:06;23.13;;;8.73;;
42682;SDS011;28293;50.930;3.464;2023-05-27T05:07:36;21.70;;;7.93;;
42682;SDS011;28293;50.930;3.464;2023-05-27T05:10:06;25.85;;;8.88;;
42682;SDS011;28293;50.930;3.464;2023-05-27T05:12:32;28.38;;;8.77;;
42682;SDS011;28293;50.930;3.464;2023-05-27T05:14:58;21.27;;;9.02;;
42682;SDS011;28293;50.930;3.464;2023-05-27T05:17:25;19.75;;;8.20;;
42682;SDS011;28293;50.930;3.464;2023-05-27T05:19:51;23.38;;;7.85;;
42682;SDS011;28293;50.930;3.464;2023-05-27T05:22:17;23.90;;;7.80;;
42682;SDS011;28293;50.930;3.464;2023-05-27T05:24:44;19.85;;;7.78;;
42682;SDS011;28293;50.930;3.464;2023-05-27T05:27:10;25.38;;;8.57;;
42682;SDS011;28293;50.930;3.464;2023-05-27T05:29:36;21.52;;;8.02;;
42682;SDS011;28293;50.930;3.464;2023-05-27T05:32:02;23.08;;;7.63;;
42682;SDS011;28293;50.930;3.464;2023-05-27T05:34:28;20.10;;;7.47;;
42682;SDS011;28293;50.930;3.464;2023-05-27T05:36:54;24.00;;;9.23;;
42682;SDS011;28293;50.930;3.464;2023-05-27T05:39:20;20.05;;;7.50;;
42682;SDS011;28293;50.930;3.464;2023-05-27T05:41:46;18.98;;;8.02;;
42682;SDS011;28293;50.930;3.464;2023-05-27T05:44:12;23.00;;;8.85;;
42682;SDS011;28293;50.930;3.464;2023-05-27T05:46:38;25.05;;;8.85;;
42682;SDS011;28293;50.930;3.464;2023-05-27T05:49:04;22.27;;;8.15;;
42682;SDS011;28293;50.930;3.464;2023-05-27T05:51:30;19.73;;;8.70;;
42682;SDS011;28293;50.930;3.464;2023-05-27T05:53:56;23.02;;;9.40;;
42682;SDS011;28293;50.930;3.464;2023-05-27T05:56:22;25.13;;;8.77;;
42682;SDS011;28293;50.930;3.464;2023-05-27T05:58:48;22.13;;;9.30;;
42682;SDS011;28293;50.930;3.464;2023-05-27T06:01:13;22.88;;;8.77;;
42682;SDS011;28293;50.930;3.464;2023-05-27T06:03:40;22.02;;;8.68;;
42682;SDS011;28293;50.930;3.464;2023-05-27T06:06:05;22.75;;;9.30;;
42682;SDS011;28293;50.930;3.464;2023-05-27T06:08:31;18.05;;;8.23;;
42682;SDS011;28293;50.930;3.464;2023-05-27T06:10:57;21.15;;;8.82;;
42682;SDS011;28293;50.930;3.464;2023-05-27T06:13:23;27.33;;;10.02;;
42682;SDS011;28293;50.930;3.464;2023-05-27T06:15:48;23.80;;;8.30;;
42682;SDS011;28293;50.930;3.464;2023-05-27T06:18:14;26.85;;;9.75;;
42682;SDS011;28293;50.930;3.464;2023-05-27T06:20:40;25.02;;;9.30;;
42682;SDS011;28293;50.930;3.464;2023-05-27T06:23:05;23.38;;;8.55;;
42682;SDS011;28293;50.930;3.464;2023-05-27T06:25:31;19.13;;;8.73;;
42682;SDS011;28293;50.930;3.464;2023-05-27T06:27:57;22.00;;;9.38;;
42682;SDS011;28293;50.930;3.464;2023-05-27T06:30:23;19.73;;;7.65;;
42682;SDS011;28293;50.930;3.464;2023-05-27T06:32:49;19.38;;;9.02;;
42682;SDS011;28293;50.930;3.464;2023-05-27T06:35:14;27.27;;;9.15;;
42682;SDS011;28293;50.930;3.464;2023-05-27T06:37:41;24.67;;;9.27;;
42682;SDS011;28293;50.930;3.464;2023-05-27T06:40:06;24.10;;;9.68;;
42682;SDS011;28293;50.930;3.464;2023-05-27T06:42:33;25.80;;;9.95;;
42682;SDS011;28293;50.930;3.464;2023-05-27T06:44:58;27.13;;;10.45;;
42682;SDS011;28293;50.930;3.464;2023-05-27T06:47:24;22.10;;;9.18;;
42682;SDS011;28293;50.930;3.464;2023-05-27T06:49:49;21.42;;;8.68;;
42682;SDS011;28293;50.930;3.464;2023-05-27T06:52:15;19.83;;;8.20;;
42682;SDS011;28293;50.930;3.464;2023-05-27T06:54:41;23.80;;;9.07;;
42682;SDS011;28293;50.930;3.464;2023-05-27T06:57:06;18.20;;;8.60;;
42682;SDS011;28293;50.930;3.464;2023-05-27T06:59:32;22.75;;;9.00;;
42682;SDS011;28293;50.930;3.464;2023-05-27T07:01:58;23.35;;;9.27;;
42682;SDS011;28293;50.930;3.464;2023-05-27T07:04:24;21.05;;;8.63;;
42682;SDS011;28293;50.930;3.464;2023-05-27T07:06:50;24.95;;;8.85;;
42682;SDS011;28293;50.930;3.464;2023-05-27T07:09:16;23.90;;;9.05;;
42682;SDS011;28293;50.930;3.464;2023-05-27T07:11:41;21.38;;;8.95;;
42682;SDS011;28293;50.930;3.464;2023-05-27T07:14:07;20.95;;;8.55;;
42682;SDS011;28293;50.930;3.464;2023-05-27T07:16:36;19.17;;;9.35;;
42682;SDS011;28293;50.930;3.464;2023-05-27T07:19:02;22.13;;;8.27;;
42682;SDS011;28293;50.930;3.464;2023-05-27T07:21:28;26.30;;;8.48;;
42682;SDS011;28293;50.930;3.464;2023-05-27T07:23:54;23.67;;;8.73;;
42682;SDS011;28293;50.930;3.464;2023-05-27T07:26:23;24.00;;;8.73;;
42682;SDS011;28293;50.930;3.464;2023-05-27T07:28:52;20.02;;;9.00;;
42682;SDS011;28293;50.930;3.464;2023-05-27T07:31:18;23.88;;;8.55;;
42682;SDS011;28293;50.930;3.464;2023-05-27T07:33:44;18.17;;;7.93;;
42682;SDS011;28293;50.930;3.464;2023-05-27T07:36:10;19.98;;;7.78;;
42682;SDS011;28293;50.930;3.464;2023-05-27T07:38:36;24.90;;;9.07;;
42682;SDS011;28293;50.930;3.464;2023-05-27T07:41:02;21.27;;;8.88;;
42682;SDS011;28293;50.930;3.464;2023-05-27T07:43:27;22.10;;;8.55;;
42682;SDS011;28293;50.930;3.464;2023-05-27T07:45:53;22.50;;;7.63;;
42682;SDS011;28293;50.930;3.464;2023-05-27T07:48:19;22.05;;;8.50;;
42682;SDS011;28293;50.930;3.464;2023-05-27T07:50:44;19.52;;;8.18;;
42682;SDS011;28293;50.930;3.464;2023-05-27T07:53:10;19.92;;;7.95;;
42682;SDS011;28293;50.930;3.464;2023-05-27T07:55:36;20.60;;;7.97;;
42682;SDS011;28293;50.930;3.464;2023-05-27T07:58:02;21.60;;;8.10;;
42682;SDS011;28293;50.930;3.464;2023-05-27T08:00:27;21.55;;;7.75;;
42682;SDS011;28293;50.930;3.464;2023-05-27T08:02:53;21.05;;;8.27;;
42682;SDS011;28293;50.930;3.464;2023-05-27T08:05:18;22.58;;;8.07;;
42682;SDS011;28293;50.930;3.464;2023-05-27T08:07:44;19.77;;;7.60;;
42682;SDS011;28293;50.930;3.464;2023-05-27T08:10:10;20.60;;;8.50;;
42682;SDS011;28293;50.930;3.464;2023-05-27T08:12:36;17.73;;;7.78;;
42682;SDS011;28293;50.930;3.464;2023-05-27T08:15:02;16.58;;;8.00;;
42682;SDS011;28293;50.930;3.464;2023-05-27T08:17:28;21.25;;;8.05;;
42682;SDS011;28293;50.930;3.464;2023-05-27T08:19:53;20.80;;;7.57;;
42682;SDS011;28293;50.930;3.464;2023-05-27T08:22:19;20.75;;;8.65;;
42682;SDS011;28293;50.930;3.464;2023-05-27T08:24:45;20.33;;;8.10;;
42682;SDS011;28293;50.930;3.464;2023-05-27T08:27:13;21.83;;;7.90;;
42682;SDS011;28293;50.930;3.464;2023-05-27T08:29:40;20.70;;;8.27;;
42682;SDS011;28293;50.930;3.464;2023-05-27T08:32:06;21.65;;;8.02;;
42682;SDS011;28293;50.930;3.464;2023-05-27T08:34:31;23.77;;;8.73;;
42682;SDS011;28293;50.930;3.464;2023-05-27T08:36:57;20.75;;;8.27;;
42682;SDS011;28293;50.930;3.464;2023-05-27T08:39:24;23.58;;;8.85;;
42682;SDS011;28293;50.930;3.464;2023-05-27T08:41:50;19.58;;;8.45;;
42682;SDS011;28293;50.930;3.464;2023-05-27T08:44:17;20.52;;;7.35;;
42682;SDS011;28293;50.930;3.464;2023-05-27T08:46:43;22.90;;;8.23;;
42682;SDS011;28293;50.930;3.464;2023-05-27T08:49:10;17.77;;;7.72;;
42682;SDS011;28293;50.930;3.464;2023-05-27T08:51:38;19.30;;;8.43;;
42682;SDS011;28293;50.930;3.464;2023-05-27T08:54:05;19.05;;;7.43;;
42682;SDS011;28293;50.930;3.464;2023-05-27T08:56:32;17.52;;;7.60;;
42682;SDS011;28293;50.930;3.464;2023-05-27T08:58:59;22.05;;;8.18;;
42682;SDS011;28293;50.930;3.464;2023-05-27T09:01:26;22.00;;;8.10;;
42682;SDS011;28293;50.930;3.464;2023-05-27T09:03:53;22.27;;;8.85;;
42682;SDS011;28293;50.930;3.464;2023-05-27T09:06:20;17.42;;;7.97;;
42682;SDS011;28293;50.930;3.464;2023-05-27T09:08:45;18.80;;;7.88;;
42682;SDS011;28293;50.930;3.464;2023-05-27T09:11:24;21.27;;;8.40;;
42682;SDS011;28293;50.930;3.464;2023-05-27T09:13:53;19.65;;;7.72;;
42682;SDS011;28293;50.930;3.464;2023-05-27T09:16:20;19.70;;;7.63;;
42682;SDS011;28293;50.930;3.464;2023-05-27T09:18:47;23.83;;;8.75;;
42682;SDS011;28293;50.930;3.464;2023-05-27T09:21:13;18.60;;;8.00;;
42682;SDS011;28293;50.930;3.464;2023-05-27T09:23:39;12.88;;;6.55;;
42682;SDS011;28293;50.930;3.464;2023-05-27T09:26:11;22.00;;;7.75;;
42682;SDS011;28293;50.930;3.464;2023-05-27T09:28:38;19.00;;;7.82;;
42682;SDS011;28293;50.930;3.464;2023-05-27T09:31:05;22.48;;;8.35;;
42682;SDS011;28293;50.930;3.464;2023-05-27T09:33:33;23.10;;;8.27;;
42682;SDS011;28293;50.930;3.464;2023-05-27T09:36:01;23.70;;;8.73;;
42682;SDS011;28293;50.930;3.464;2023-05-27T09:38:32;19.35;;;7.88;;
42682;SDS011;28293;50.930;3.464;2023-05-27T09:40:58;22.15;;;8.27;;
42682;SDS011;28293;50.930;3.464;2023-05-27T09:43:25;20.17;;;8.10;;
42682;SDS011;28293;50.930;3.464;2023-05-27T09:45:52;18.65;;;8.27;;
42682;SDS011;28293;50.930;3.464;2023-05-27T09:48:23;18.95;;;7.80;;
42682;SDS011;28293;50.930;3.464;2023-05-27T09:50:51;18.33;;;6.95;;
42682;SDS011;28293;50.930;3.464;2023-05-27T09:53:18;17.48;;;6.78;;
42682;SDS011;28293;50.930;3.464;2023-05-27T09:55:47;21.38;;;7.80;;
42682;SDS011;28293;50.930;3.464;2023-05-27T09:58:14;16.95;;;7.03;;
42682;SDS011;28293;50.930;3.464;2023-05-27T10:00:41;17.80;;;7.78;;
42682;SDS011;28293;50.930;3.464;2023-05-27T10:03:09;17.60;;;7.13;;
42682;SDS011;28293;50.930;3.464;2023-05-27T10:05:35;23.48;;;8.80;;
42682;SDS011;28293;50.930;3.464;2023-05-27T10:08:02;18.60;;;7.80;;
42682;SDS011;28293;50.930;3.464;2023-05-27T10:10:28;22.55;;;7.80;;
42682;SDS011;28293;50.930;3.464;2023-05-27T10:12:54;21.10;;;8.30;;
42682;SDS011;28293;50.930;3.464;2023-05-27T10:15:22;20.58;;;8.13;;
42682;SDS011;28293;50.930;3.464;2023-05-27T10:17:52;20.25;;;7.97;;
42682;SDS011;28293;50.930;3.464;2023-05-27T10:20:33;20.35;;;7.45;;
42682;SDS011;28293;50.930;3.464;2023-05-27T10:23:10;17.13;;;7.88;;
42682;SDS011;28293;50.930;3.464;2023-05-27T10:25:39;20.63;;;8.55;;
42682;SDS011;28293;50.930;3.464;2023-05-27T10:28:06;18.27;;;7.18;;
42682;SDS011;28293;50.930;3.464;2023-05-27T10:30:42;18.73;;;7.78;;
42682;SDS011;28293;50.930;3.464;2023-05-27T10:33:09;18.05;;;7.90;;
42682;SDS011;28293;50.930;3.464;2023-05-27T10:35:39;19.20;;;8.55;;
42682;SDS011;28293;50.930;3.464;2023-05-27T10:38:15;21.38;;;8.45;;
42682;SDS011;28293;50.930;3.464;2023-05-27T10:40:42;17.35;;;7.57;;
42682;SDS011;28293;50.930;3.464;2023-05-27T10:43:15;21.08;;;7.75;;
42682;SDS011;28293;50.930;3.464;2023-05-27T10:45:42;18.02;;;8.43;;
42682;SDS011;28293;50.930;3.464;2023-05-27T10:48:14;20.77;;;7.82;;
42682;SDS011;28293;50.930;3.464;2023-05-27T10:50:41;17.20;;;7.95;;
42682;SDS011;28293;50.930;3.464;2023-05-27T10:55:42;21.85;;;8.38;;
42682;SDS011;28293;50.930;3.464;2023-05-27T10:58:10;24.55;;;8.60;;
42682;SDS011;28293;50.930;3.464;2023-05-27T11:00:36;25.30;;;9.18;;
42682;SDS011;28293;50.930;3.464;2023-05-27T11:03:03;18.00;;;8.52;;
42682;SDS011;28293;50.930;3.464;2023-05-27T11:05:29;18.77;;;8.15;;
42682;SDS011;28293;50.930;3.464;2023-05-27T11:07:58;22.73;;;9.52;;
42682;SDS011;28293;50.930;3.464;2023-05-27T11:10:25;21.92;;;8.77;;
42682;SDS011;28293;50.930;3.464;2023-05-27T11:12:51;18.02;;;8.25;;
42682;SDS011;28293;50.930;3.464;2023-05-27T11:15:18;19.45;;;8.25;;
42682;SDS011;28293;50.930;3.464;2023-05-27T11:17:44;21.95;;;8.30;;
42682;SDS011;28293;50.930;3.464;2023-05-27T11:20:09;19.98;;;8.07;;
42682;SDS011;28293;50.930;3.464;2023-05-27T11:22:35;18.52;;;8.85;;
42682;SDS011;28293;50.930;3.464;2023-05-27T11:25:02;16.70;;;8.10;;
42682;SDS011;28293;50.930;3.464;2023-05-27T11:27:34;21.48;;;9.43;;
42682;SDS011;28293;50.930;3.464;2023-05-27T11:30:05;22.05;;;9.35;;
42682;SDS011;28293;50.930;3.464;2023-05-27T11:32:35;21.30;;;9.13;;
42682;SDS011;28293;50.930;3.464;2023-05-27T11:35:01;22.30;;;8.85;;
42682;SDS011;28293;50.930;3.464;2023-05-27T11:37:31;18.13;;;7.30;;
42682;SDS011;28293;50.930;3.464;2023-05-27T11:39:59;22.40;;;7.70;;
42682;SDS011;28293;50.930;3.464;2023-05-27T11:42:25;15.75;;;6.38;;
42682;SDS011;28293;50.930;3.464;2023-05-27T11:44:55;17.75;;;7.05;;
42682;SDS011;28293;50.930;3.464;2023-05-27T11:47:22;24.00;;;7.43;;
42682;SDS011;28293;50.930;3.464;2023-05-27T11:49:52;17.95;;;6.30;;
42682;SDS011;28293;50.930;3.464;2023-05-27T11:52:18;18.90;;;7.35;;
42682;SDS011;28293;50.930;3.464;2023-05-27T11:54:43;22.45;;;7.32;;
42682;SDS011;28293;50.930;3.464;2023-05-27T11:57:13;21.55;;;7.93;;
42682;SDS011;28293;50.930;3.464;2023-05-27T11:59:39;21.27;;;8.45;;
42682;SDS011;28293;50.930;3.464;2023-05-27T12:02:05;19.13;;;8.85;;
42682;SDS011;28293;50.930;3.464;2023-05-27T12:04:32;19.50;;;8.13;;
42682;SDS011;28293;50.930;3.464;2023-05-27T12:06:58;17.38;;;7.00;;
42682;SDS011;28293;50.930;3.464;2023-05-27T12:09:25;18.77;;;7.97;;
42682;SDS011;28293;50.930;3.464;2023-05-27T12:11:52;19.42;;;8.25;;
42682;SDS011;28293;50.930;3.464;2023-05-27T12:14:18;19.55;;;8.63;;
42682;SDS011;28293;50.930;3.464;2023-05-27T12:16:43;21.65;;;7.63;;
42682;SDS011;28293;50.930;3.464;2023-05-27T12:19:09;19.20;;;8.07;;
42682;SDS011;28293;50.930;3.464;2023-05-27T12:21:37;21.63;;;7.95;;
42682;SDS011;28293;50.930;3.464;2023-05-27T12:24:02;20.20;;;8.07;;
42682;SDS011;28293;50.930;3.464;2023-05-27T12:26:29;17.63;;;6.60;;
42682;SDS011;28293;50.930;3.464;2023-05-27T12:28:54;18.88;;;7.93;;
42682;SDS011;28293;50.930;3.464;2023-05-27T12:31:21;16.63;;;6.82;;
42682;SDS011;28293;50.930;3.464;2023-05-27T12:33:47;21.55;;;7.57;;
42682;SDS011;28293;50.930;3.464;2023-05-27T12:36:13;21.88;;;7.35;;
42682;SDS011;28293;50.930;3.464;2023-05-27T12:38:39;13.80;;;6.07;;
42682;SDS011;28293;50.930;3.464;2023-05-27T12:41:06;15.25;;;6.10;;
42682;SDS011;28293;50.930;3.464;2023-05-27T12:43:32;17.33;;;5.80;;
42682;SDS011;28293;50.930;3.464;2023-05-27T12:45:58;17.08;;;6.20;;
42682;SDS011;28293;50.930;3.464;2023-05-27T12:48:24;18.50;;;6.82;;
42682;SDS011;28293;50.930;3.464;2023-05-27T12:50:50;18.45;;;7.68;;
42682;SDS011;28293;50.930;3.464;2023-05-27T12:53:16;17.38;;;6.95;;
42682;SDS011;28293;50.930;3.464;2023-05-27T12:55:42;15.75;;;6.60;;
42682;SDS011;28293;50.930;3.464;2023-05-27T12:58:09;15.95;;;6.50;;
42682;SDS011;28293;50.930;3.464;2023-05-27T13:00:35;13.90;;;5.05;;
42682;SDS011;28293;50.930;3.464;2023-05-27T13:03:01;16.48;;;6.40;;
42682;SDS011;28293;50.930;3.464;2023-05-27T13:05:27;16.48;;;6.15;;
42682;SDS011;28293;50.930;3.464;2023-05-27T13:07:57;13.00;;;5.32;;
42682;SDS011;28293;50.930;3.464;2023-05-27T13:10:28;13.70;;;5.88;;
42682;SDS011;28293;50.930;3.464;2023-05-27T13:12:54;15.18;;;6.10;;
42682;SDS011;28293;50.930;3.464;2023-05-27T13:15:20;16.02;;;5.82;;
42682;SDS011;28293;50.930;3.464;2023-05-27T13:17:47;15.10;;;6.20;;
42682;SDS011;28293;50.930;3.464;2023-05-27T13:20:14;18.33;;;7.20;;
42682;SDS011;28293;50.930;3.464;2023-05-27T13:22:41;14.35;;;6.18;;
42682;SDS011;28293;50.930;3.464;2023-05-27T13:25:08;15.25;;;6.10;;
42682;SDS011;28293;50.930;3.464;2023-05-27T13:27:34;15.07;;;5.70;;
42682;SDS011;28293;50.930;3.464;2023-05-27T13:30:00;15.63;;;5.63;;
42682;SDS011;28293;50.930;3.464;2023-05-27T13:32:25;18.48;;;6.22;;
42682;SDS011;28293;50.930;3.464;2023-05-27T13:34:51;14.73;;;5.70;;
42682;SDS011;28293;50.930;3.464;2023-05-27T13:37:17;15.70;;;7.25;;
42682;SDS011;28293;50.930;3.464;2023-05-27T13:39:43;18.40;;;6.28;;
42682;SDS011;28293;50.930;3.464;2023-05-27T13:42:09;14.57;;;5.55;;
42682;SDS011;28293;50.930;3.464;2023-05-27T13:44:35;19.27;;;7.65;;
42682;SDS011;28293;50.930;3.464;2023-05-27T13:47:01;18.02;;;8.65;;
42682;SDS011;28293;50.930;3.464;2023-05-27T13:49:27;16.80;;;7.40;;
42682;SDS011;28293;50.930;3.464;2023-05-27T13:51:52;14.90;;;6.05;;
42682;SDS011;28293;50.930;3.464;2023-05-27T13:54:18;11.90;;;4.70;;
42682;SDS011;28293;50.930;3.464;2023-05-27T13:56:44;15.02;;;5.85;;
42682;SDS011;28293;50.930;3.464;2023-05-27T13:59:10;14.52;;;5.47;;
42682;SDS011;28293;50.930;3.464;2023-05-27T14:01:37;15.45;;;5.85;;
42682;SDS011;28293;50.930;3.464;2023-05-27T14:04:03;17.27;;;6.00;;
42682;SDS011;28293;50.930;3.464;2023-05-27T14:06:29;17.10;;;6.43;;
42682;SDS011;28293;50.930;3.464;2023-05-27T14:08:56;11.85;;;4.95;;
42682;SDS011;28293;50.930;3.464;2023-05-27T14:11:21;16.23;;;5.65;;
42682;SDS011;28293;50.930;3.464;2023-05-27T14:13:47;17.27;;;5.82;;
42682;SDS011;28293;50.930;3.464;2023-05-27T14:16:14;12.52;;;5.20;;
42682;SDS011;28293;50.930;3.464;2023-05-27T14:18:39;15.02;;;5.10;;
42682;SDS011;28293;50.930;3.464;2023-05-27T14:21:05;12.60;;;4.45;;
42682;SDS011;28293;50.930;3.464;2023-05-27T14:23:31;17.85;;;5.85;;
42682;SDS011;28293;50.930;3.464;2023-05-27T14:25:56;13.77;;;5.95;;
42682;SDS011;28293;50.930;3.464;2023-05-27T14:28:22;15.55;;;4.45;;
42682;SDS011;28293;50.930;3.464;2023-05-27T14:30:48;12.85;;;4.90;;
42682;SDS011;28293;50.930;3.464;2023-05-27T14:33:14;14.30;;;5.28;;
42682;SDS011;28293;50.930;3.464;2023-05-27T14:35:39;16.95;;;5.60;;
42682;SDS011;28293;50.930;3.464;2023-05-27T14:38:06;16.15;;;5.30;;
42682;SDS011;28293;50.930;3.464;2023-05-27T14:40:32;14.85;;;5.20;;
42682;SDS011;28293;50.930;3.464;2023-05-27T14:42:58;16.67;;;5.03;;
42682;SDS011;28293;50.930;3.464;2023-05-27T14:45:24;15.00;;;5.10;;